sensor_id;sensor_type;location;lat;lon;timestamp;temperature;humidity
50738;DHT22;36703;48.154;17.126;2022-08-21T00:00:15;24.10;54.10
50738;DHT22;36703;48.154;17.126;2022-08-21T00:04:19;24.10;54.30
50738;DHT22;36703;48.154;17.126;2022-08-21T00:08:21;24.00;54.40
50738;DHT22;36703;48.154;17.126;2022-08-21T00:12:22;24.00;54.60
50738;DHT22;36703;48.154;17.126;2022-08-21T00:16:24;23.90;54.70
50738;DHT22;36703;48.154;17.126;2022-08-21T00:20:25;23.80;54.80
50738;DHT22;36703;48.154;17.126;2022-08-21T00:24:27;23.80;54.80
50738;DHT22;36703;48.154;17.126;2022-08-21T00:28:29;23.80;55.00
50738;DHT22;36703;48.154;17.126;2022-08-21T00:32:30;23.70;55.00
50738;DHT22;36703;48.154;17.126;2022-08-21T00:36:31;23.70;55.10
50738;DHT22;36703;48.154;17.126;2022-08-21T00:41:03;23.70;55.20
50738;DHT22;36703;48.154;17.126;2022-08-21T00:45:06;23.60;55.30
50738;DHT22;36703;48.154;17.126;2022-08-21T00:49:11;23.60;55.40
50738;DHT22;36703;48.154;17.126;2022-08-21T00:53:14;23.60;55.40
50738;DHT22;36703;48.154;17.126;2022-08-21T00:57:20;23.60;55.40
50738;DHT22;36703;48.154;17.126;2022-08-21T01:01:24;23.60;55.40
50738;DHT22;36703;48.154;17.126;2022-08-21T01:05:27;23.50;55.30
50738;DHT22;36703;48.154;17.126;2022-08-21T01:09:28;23.50;55.40
50738;DHT22;36703;48.154;17.126;2022-08-21T01:13:32;23.40;55.40
50738;DHT22;36703;48.154;17.126;2022-08-21T01:17:36;23.40;55.40
50738;DHT22;36703;48.154;17.126;2022-08-21T01:21:38;23.40;55.40
50738;DHT22;36703;48.154;17.126;2022-08-21T01:25:39;23.40;55.40
50738;DHT22;36703;48.154;17.126;2022-08-21T01:29:46;23.40;55.40
50738;DHT22;36703;48.154;17.126;2022-08-21T01:33:53;23.40;55.40
50738;DHT22;36703;48.154;17.126;2022-08-21T01:37:55;23.30;55.30
50738;DHT22;36703;48.154;17.126;2022-08-21T01:41:56;23.30;55.40
50738;DHT22;36703;48.154;17.126;2022-08-21T01:45:57;23.30;55.40
50738;DHT22;36703;48.154;17.126;2022-08-21T01:49:59;23.30;55.50
50738;DHT22;36703;48.154;17.126;2022-08-21T01:54:00;23.20;55.40
50738;DHT22;36703;48.154;17.126;2022-08-21T01:58:02;23.20;55.50
50738;DHT22;36703;48.154;17.126;2022-08-21T02:02:04;23.20;55.60
50738;DHT22;36703;48.154;17.126;2022-08-21T02:06:07;23.10;55.60
50738;DHT22;36703;48.154;17.126;2022-08-21T02:10:18;23.10;55.60
50738;DHT22;36703;48.154;17.126;2022-08-21T02:14:22;23.10;55.70
50738;DHT22;36703;48.154;17.126;2022-08-21T02:18:23;23.10;55.70
50738;DHT22;36703;48.154;17.126;2022-08-21T02:22:24;23.10;55.80
50738;DHT22;36703;48.154;17.126;2022-08-21T02:26:26;23.00;55.80
50738;DHT22;36703;48.154;17.126;2022-08-21T02:30:31;23.10;55.90
50738;DHT22;36703;48.154;17.126;2022-08-21T02:34:35;23.00;55.90
50738;DHT22;36703;48.154;17.126;2022-08-21T02:38:37;23.00;56.10
50738;DHT22;36703;48.154;17.126;2022-08-21T02:42:40;23.00;56.10
50738;DHT22;36703;48.154;17.126;2022-08-21T02:46:41;23.00;56.30
50738;DHT22;36703;48.154;17.126;2022-08-21T02:50:50;22.90;56.30
50738;DHT22;36703;48.154;17.126;2022-08-21T02:54:53;22.90;56.30
50738;DHT22;36703;48.154;17.126;2022-08-21T02:58:54;22.90;56.50
50738;DHT22;36703;48.154;17.126;2022-08-21T03:02:57;22.90;56.50
50738;DHT22;36703;48.154;17.126;2022-08-21T03:06:59;22.90;56.60
50738;DHT22;36703;48.154;17.126;2022-08-21T03:11:01;22.90;56.70
50738;DHT22;36703;48.154;17.126;2022-08-21T03:15:04;22.80;56.80
50738;DHT22;36703;48.154;17.126;2022-08-21T03:19:07;22.80;56.80
50738;DHT22;36703;48.154;17.126;2022-08-21T03:23:09;22.90;57.00
50738;DHT22;36703;48.154;17.126;2022-08-21T03:27:11;22.80;57.10
50738;DHT22;36703;48.154;17.126;2022-08-21T03:31:16;22.80;57.10
50738;DHT22;36703;48.154;17.126;2022-08-21T03:35:19;22.80;57.10
50738;DHT22;36703;48.154;17.126;2022-08-21T03:39:21;22.80;57.20
50738;DHT22;36703;48.154;17.126;2022-08-21T03:43:22;22.80;57.30
50738;DHT22;36703;48.154;17.126;2022-08-21T03:47:24;22.80;57.30
50738;DHT22;36703;48.154;17.126;2022-08-21T03:51:25;22.80;57.40
50738;DHT22;36703;48.154;17.126;2022-08-21T03:55:27;22.80;57.50
50738;DHT22;36703;48.154;17.126;2022-08-21T03:59:28;22.70;57.50
50738;DHT22;36703;48.154;17.126;2022-08-21T04:03:30;22.80;57.60
50738;DHT22;36703;48.154;17.126;2022-08-21T04:07:31;22.80;57.70
50738;DHT22;36703;48.154;17.126;2022-08-21T04:11:32;22.80;57.70
50738;DHT22;36703;48.154;17.126;2022-08-21T04:15:34;22.80;57.70
50738;DHT22;36703;48.154;17.126;2022-08-21T04:19:36;22.80;57.70
50738;DHT22;36703;48.154;17.126;2022-08-21T04:23:37;22.70;57.70
50738;DHT22;36703;48.154;17.126;2022-08-21T04:27:39;22.80;57.70
50738;DHT22;36703;48.154;17.126;2022-08-21T04:31:41;22.80;57.70
50738;DHT22;36703;48.154;17.126;2022-08-21T04:35:44;22.70;57.70
50738;DHT22;36703;48.154;17.126;2022-08-21T04:39:45;22.80;57.80
50738;DHT22;36703;48.154;17.126;2022-08-21T04:43:46;22.80;57.80
50738;DHT22;36703;48.154;17.126;2022-08-21T04:47:50;22.70;57.90
50738;DHT22;36703;48.154;17.126;2022-08-21T04:52:02;22.80;57.90
50738;DHT22;36703;48.154;17.126;2022-08-21T04:56:18;22.70;58.40
50738;DHT22;36703;48.154;17.126;2022-08-21T05:00:24;22.70;57.80
50738;DHT22;36703;48.154;17.126;2022-08-21T05:04:30;22.70;57.80
50738;DHT22;36703;48.154;17.126;2022-08-21T05:08:32;22.70;57.80
50738;DHT22;36703;48.154;17.126;2022-08-21T05:12:34;22.80;57.80
50738;DHT22;36703;48.154;17.126;2022-08-21T05:16:36;22.70;57.80
50738;DHT22;36703;48.154;17.126;2022-08-21T05:20:38;22.80;57.80
50738;DHT22;36703;48.154;17.126;2022-08-21T05:24:39;22.80;57.80
50738;DHT22;36703;48.154;17.126;2022-08-21T05:28:40;22.80;57.70
50738;DHT22;36703;48.154;17.126;2022-08-21T05:32:42;22.90;57.70
50738;DHT22;36703;48.154;17.126;2022-08-21T05:36:44;22.90;57.50
50738;DHT22;36703;48.154;17.126;2022-08-21T05:40:46;22.90;57.50
50738;DHT22;36703;48.154;17.126;2022-08-21T05:44:47;23.00;57.50
50738;DHT22;36703;48.154;17.126;2022-08-21T05:48:48;23.00;57.40
50738;DHT22;36703;48.154;17.126;2022-08-21T05:52:50;23.00;57.40
50738;DHT22;36703;48.154;17.126;2022-08-21T05:56:51;23.10;57.30
50738;DHT22;36703;48.154;17.126;2022-08-21T06:00:53;23.10;57.10
50738;DHT22;36703;48.154;17.126;2022-08-21T06:04:56;23.20;57.20
50738;DHT22;36703;48.154;17.126;2022-08-21T06:08:58;23.50;57.00
50738;DHT22;36703;48.154;17.126;2022-08-21T06:12:59;23.60;56.50
50738;DHT22;36703;48.154;17.126;2022-08-21T06:17:11;23.70;56.30
50738;DHT22;36703;48.154;17.126;2022-08-21T06:21:13;23.90;56.00
50738;DHT22;36703;48.154;17.126;2022-08-21T06:25:14;24.00;55.80
50738;DHT22;36703;48.154;17.126;2022-08-21T06:29:15;24.10;55.40
50738;DHT22;36703;48.154;17.126;2022-08-21T06:33:18;24.20;55.20
50738;DHT22;36703;48.154;17.126;2022-08-21T06:37:19;24.20;55.00
50738;DHT22;36703;48.154;17.126;2022-08-21T06:41:21;24.40;54.80
50738;DHT22;36703;48.154;17.126;2022-08-21T06:45:22;24.40;54.50
50738;DHT22;36703;48.154;17.126;2022-08-21T06:49:23;24.50;54.40
50738;DHT22;36703;48.154;17.126;2022-08-21T06:53:25;24.50;54.30
50738;DHT22;36703;48.154;17.126;2022-08-21T06:57:26;24.60;54.10
50738;DHT22;36703;48.154;17.126;2022-08-21T07:01:28;24.70;53.90
50738;DHT22;36703;48.154;17.126;2022-08-21T07:05:30;24.90;53.70
50738;DHT22;36703;48.154;17.126;2022-08-21T07:09:31;24.40;54.00
50738;DHT22;36703;48.154;17.126;2022-08-21T07:13:32;24.10;55.10
50738;DHT22;36703;48.154;17.126;2022-08-21T07:17:34;24.00;55.70
50738;DHT22;36703;48.154;17.126;2022-08-21T07:21:35;23.80;55.90
50738;DHT22;36703;48.154;17.126;2022-08-21T07:25:37;23.80;56.40
50738;DHT22;36703;48.154;17.126;2022-08-21T07:29:39;23.80;56.70
50738;DHT22;36703;48.154;17.126;2022-08-21T07:33:41;23.80;56.80
50738;DHT22;36703;48.154;17.126;2022-08-21T07:37:43;23.90;56.70
50738;DHT22;36703;48.154;17.126;2022-08-21T07:41:44;24.30;56.70
50738;DHT22;36703;48.154;17.126;2022-08-21T07:45:46;24.10;56.30
50738;DHT22;36703;48.154;17.126;2022-08-21T07:49:47;24.20;55.90
50738;DHT22;36703;48.154;17.126;2022-08-21T07:53:51;24.30;55.90
50738;DHT22;36703;48.154;17.126;2022-08-21T07:57:53;24.30;55.70
50738;DHT22;36703;48.154;17.126;2022-08-21T08:01:54;24.40;55.60
50738;DHT22;36703;48.154;17.126;2022-08-21T08:05:57;24.50;55.60
50738;DHT22;36703;48.154;17.126;2022-08-21T08:09:59;24.50;55.50
50738;DHT22;36703;48.154;17.126;2022-08-21T08:14:00;24.50;55.70
50738;DHT22;36703;48.154;17.126;2022-08-21T08:18:02;24.50;55.60
50738;DHT22;36703;48.154;17.126;2022-08-21T08:22:13;24.50;55.70
50738;DHT22;36703;48.154;17.126;2022-08-21T08:26:16;24.50;55.90
50738;DHT22;36703;48.154;17.126;2022-08-21T08:30:18;24.60;56.20
50738;DHT22;36703;48.154;17.126;2022-08-21T08:34:21;24.70;56.50
50738;DHT22;36703;48.154;17.126;2022-08-21T08:38:24;24.80;55.80
50738;DHT22;36703;48.154;17.126;2022-08-21T08:42:34;24.80;55.40
50738;DHT22;36703;48.154;17.126;2022-08-21T08:46:47;24.80;55.20
50738;DHT22;36703;48.154;17.126;2022-08-21T08:50:55;24.80;55.20
50738;DHT22;36703;48.154;17.126;2022-08-21T08:55:07;24.90;55.20
50738;DHT22;36703;48.154;17.126;2022-08-21T08:59:25;24.80;54.90
50738;DHT22;36703;48.154;17.126;2022-08-21T09:03:28;24.70;55.00
50738;DHT22;36703;48.154;17.126;2022-08-21T09:08:09;24.70;55.10
50738;DHT22;36703;48.154;17.126;2022-08-21T09:21:47;24.70;54.90
50738;DHT22;36703;48.154;17.126;2022-08-21T09:30:31;24.70;55.40
50738;DHT22;36703;48.154;17.126;2022-08-21T09:34:33;24.60;55.60
50738;DHT22;36703;48.154;17.126;2022-08-21T09:38:36;24.70;55.70
50738;DHT22;36703;48.154;17.126;2022-08-21T09:42:38;24.60;55.80
50738;DHT22;36703;48.154;17.126;2022-08-21T09:46:51;24.70;55.90
50738;DHT22;36703;48.154;17.126;2022-08-21T09:50:53;24.80;55.70
50738;DHT22;36703;48.154;17.126;2022-08-21T09:55:30;24.90;55.70
50738;DHT22;36703;48.154;17.126;2022-08-21T09:59:53;25.00;55.50
50738;DHT22;36703;48.154;17.126;2022-08-21T10:04:08;25.10;55.40
50738;DHT22;36703;48.154;17.126;2022-08-21T10:08:18;25.10;55.40
50738;DHT22;36703;48.154;17.126;2022-08-21T10:12:23;25.10;55.40
50738;DHT22;36703;48.154;17.126;2022-08-21T10:17:00;25.20;55.40
50738;DHT22;36703;48.154;17.126;2022-08-21T10:21:27;25.40;55.20
50738;DHT22;36703;48.154;17.126;2022-08-21T10:30:15;25.60;54.90
50738;DHT22;36703;48.154;17.126;2022-08-21T10:35:17;25.60;54.80
50738;DHT22;36703;48.154;17.126;2022-08-21T10:39:34;25.60;54.60
50738;DHT22;36703;48.154;17.126;2022-08-21T10:43:49;25.60;54.60
50738;DHT22;36703;48.154;17.126;2022-08-21T10:47:58;25.60;54.30
50738;DHT22;36703;48.154;17.126;2022-08-21T10:56:50;25.60;53.90
50738;DHT22;36703;48.154;17.126;2022-08-21T11:01:19;25.50;54.00
50738;DHT22;36703;48.154;17.126;2022-08-21T11:09:31;25.50;53.90
50738;DHT22;36703;48.154;17.126;2022-08-21T11:14:01;25.50;53.70
50738;DHT22;36703;48.154;17.126;2022-08-21T11:18:12;25.70;53.60
50738;DHT22;36703;48.154;17.126;2022-08-21T11:22:21;26.10;53.40
50738;DHT22;36703;48.154;17.126;2022-08-21T11:26:37;26.50;52.70
50738;DHT22;36703;48.154;17.126;2022-08-21T11:35:48;26.90;51.40
50738;DHT22;36703;48.154;17.126;2022-08-21T11:40:10;27.00;51.10
50738;DHT22;36703;48.154;17.126;2022-08-21T11:44:48;27.10;50.90
50738;DHT22;36703;48.154;17.126;2022-08-21T11:49:21;27.10;50.40
50738;DHT22;36703;48.154;17.126;2022-08-21T11:53:37;27.20;50.10
50738;DHT22;36703;48.154;17.126;2022-08-21T12:02:15;27.50;49.30
50738;DHT22;36703;48.154;17.126;2022-08-21T12:06:39;27.60;49.10
50738;DHT22;36703;48.154;17.126;2022-08-21T12:10:47;27.70;48.70
50738;DHT22;36703;48.154;17.126;2022-08-21T12:15:11;27.80;48.40
50738;DHT22;36703;48.154;17.126;2022-08-21T12:23:44;28.30;47.90
50738;DHT22;36703;48.154;17.126;2022-08-21T12:27:53;28.60;47.40
50738;DHT22;36703;48.154;17.126;2022-08-21T12:36:23;28.70;46.90
50738;DHT22;36703;48.154;17.126;2022-08-21T12:41:04;28.70;46.70
50738;DHT22;36703;48.154;17.126;2022-08-21T12:45:22;28.50;46.70
50738;DHT22;36703;48.154;17.126;2022-08-21T12:49:35;28.50;46.70
50738;DHT22;36703;48.154;17.126;2022-08-21T12:53:45;28.40;46.70
50738;DHT22;36703;48.154;17.126;2022-08-21T12:57:49;28.40;46.80
50738;DHT22;36703;48.154;17.126;2022-08-21T13:01:51;28.40;46.80
50738;DHT22;36703;48.154;17.126;2022-08-21T13:05:55;28.30;46.30
50738;DHT22;36703;48.154;17.126;2022-08-21T13:10:09;28.30;46.40
50738;DHT22;36703;48.154;17.126;2022-08-21T13:18:34;28.10;46.40
50738;DHT22;36703;48.154;17.126;2022-08-21T13:22:46;28.00;46.50
50738;DHT22;36703;48.154;17.126;2022-08-21T13:26:48;27.80;46.40
50738;DHT22;36703;48.154;17.126;2022-08-21T13:30:53;27.80;46.50
50738;DHT22;36703;48.154;17.126;2022-08-21T13:34:56;27.80;46.40
50738;DHT22;36703;48.154;17.126;2022-08-21T13:38:59;27.70;46.30
50738;DHT22;36703;48.154;17.126;2022-08-21T13:43:01;27.60;46.20
50738;DHT22;36703;48.154;17.126;2022-08-21T13:47:04;27.60;46.20
50738;DHT22;36703;48.154;17.126;2022-08-21T13:51:06;27.50;46.30
50738;DHT22;36703;48.154;17.126;2022-08-21T13:55:12;27.40;46.40
50738;DHT22;36703;48.154;17.126;2022-08-21T13:59:24;27.20;46.60
50738;DHT22;36703;48.154;17.126;2022-08-21T14:03:44;27.00;47.10
50738;DHT22;36703;48.154;17.126;2022-08-21T14:07:47;26.90;47.30
50738;DHT22;36703;48.154;17.126;2022-08-21T14:11:48;26.70;47.70
50738;DHT22;36703;48.154;17.126;2022-08-21T14:15:56;26.60;48.10
50738;DHT22;36703;48.154;17.126;2022-08-21T14:19:59;26.50;48.50
50738;DHT22;36703;48.154;17.126;2022-08-21T14:28:26;26.20;49.10
50738;DHT22;36703;48.154;17.126;2022-08-21T14:32:38;26.20;49.30
50738;DHT22;36703;48.154;17.126;2022-08-21T14:36:40;26.10;49.60
50738;DHT22;36703;48.154;17.126;2022-08-21T14:40:42;26.00;49.80
50738;DHT22;36703;48.154;17.126;2022-08-21T14:44:45;26.10;49.90
50738;DHT22;36703;48.154;17.126;2022-08-21T14:48:46;26.10;50.00
50738;DHT22;36703;48.154;17.126;2022-08-21T14:52:48;25.90;50.20
50738;DHT22;36703;48.154;17.126;2022-08-21T14:56:49;25.80;50.40
50738;DHT22;36703;48.154;17.126;2022-08-21T15:00:52;25.70;50.40
50738;DHT22;36703;48.154;17.126;2022-08-21T15:04:55;25.70;50.50
50738;DHT22;36703;48.154;17.126;2022-08-21T15:08:56;25.80;50.50
50738;DHT22;36703;48.154;17.126;2022-08-21T15:12:57;25.90;50.30
50738;DHT22;36703;48.154;17.126;2022-08-21T15:16:59;25.90;50.30
50738;DHT22;36703;48.154;17.126;2022-08-21T15:21:00;25.80;50.30
50738;DHT22;36703;48.154;17.126;2022-08-21T15:25:02;25.70;50.40
50738;DHT22;36703;48.154;17.126;2022-08-21T15:29:05;25.60;50.40
50738;DHT22;36703;48.154;17.126;2022-08-21T15:33:07;25.60;50.60
50738;DHT22;36703;48.154;17.126;2022-08-21T15:37:09;25.50;50.50
50738;DHT22;36703;48.154;17.126;2022-08-21T15:41:10;25.40;50.80
50738;DHT22;36703;48.154;17.126;2022-08-21T15:45:12;25.40;50.80
50738;DHT22;36703;48.154;17.126;2022-08-21T15:49:14;25.40;50.90
50738;DHT22;36703;48.154;17.126;2022-08-21T15:53:16;25.40;50.80
50738;DHT22;36703;48.154;17.126;2022-08-21T15:57:21;25.40;50.80
50738;DHT22;36703;48.154;17.126;2022-08-21T16:01:23;25.40;50.60
50738;DHT22;36703;48.154;17.126;2022-08-21T16:05:25;25.50;50.80
50738;DHT22;36703;48.154;17.126;2022-08-21T16:09:27;25.40;50.60
50738;DHT22;36703;48.154;17.126;2022-08-21T16:13:34;25.00;50.50
50738;DHT22;36703;48.154;17.126;2022-08-21T16:17:39;25.30;50.70
50738;DHT22;36703;48.154;17.126;2022-08-21T16:21:42;25.30;50.60
50738;DHT22;36703;48.154;17.126;2022-08-21T16:25:43;25.40;50.60
50738;DHT22;36703;48.154;17.126;2022-08-21T16:29:45;25.40;50.50
50738;DHT22;36703;48.154;17.126;2022-08-21T16:33:50;25.40;50.30
50738;DHT22;36703;48.154;17.126;2022-08-21T16:37:53;25.30;50.40
50738;DHT22;36703;48.154;17.126;2022-08-21T16:41:55;25.10;50.40
50738;DHT22;36703;48.154;17.126;2022-08-21T16:45:57;25.00;50.70
50738;DHT22;36703;48.154;17.126;2022-08-21T16:49:59;25.10;50.70
50738;DHT22;36703;48.154;17.126;2022-08-21T16:54:01;25.10;50.70
50738;DHT22;36703;48.154;17.126;2022-08-21T16:58:09;25.20;50.60
50738;DHT22;36703;48.154;17.126;2022-08-21T17:02:32;25.30;50.40
50738;DHT22;36703;48.154;17.126;2022-08-21T17:06:38;25.10;50.50
50738;DHT22;36703;48.154;17.126;2022-08-21T17:10:43;25.10;50.80
50738;DHT22;36703;48.154;17.126;2022-08-21T17:14:47;25.20;50.70
50738;DHT22;36703;48.154;17.126;2022-08-21T17:18:49;25.30;50.60
50738;DHT22;36703;48.154;17.126;2022-08-21T17:22:51;25.30;50.40
50738;DHT22;36703;48.154;17.126;2022-08-21T17:26:53;25.20;50.40
50738;DHT22;36703;48.154;17.126;2022-08-21T17:30:57;25.00;50.50
50738;DHT22;36703;48.154;17.126;2022-08-21T17:35:00;24.90;50.70
50738;DHT22;36703;48.154;17.126;2022-08-21T17:39:03;25.00;50.90
50738;DHT22;36703;48.154;17.126;2022-08-21T17:43:09;24.90;50.70
50738;DHT22;36703;48.154;17.126;2022-08-21T17:47:13;25.00;50.50
50738;DHT22;36703;48.154;17.126;2022-08-21T17:51:15;25.00;50.40
50738;DHT22;36703;48.154;17.126;2022-08-21T17:55:17;25.00;50.40
50738;DHT22;36703;48.154;17.126;2022-08-21T17:59:22;25.00;50.40
50738;DHT22;36703;48.154;17.126;2022-08-21T18:03:23;24.90;50.70
50738;DHT22;36703;48.154;17.126;2022-08-21T18:07:24;24.60;51.00
50738;DHT22;36703;48.154;17.126;2022-08-21T18:11:28;24.50;51.20
50738;DHT22;36703;48.154;17.126;2022-08-21T18:15:31;24.30;51.40
50738;DHT22;36703;48.154;17.126;2022-08-21T18:19:33;24.30;51.70
50738;DHT22;36703;48.154;17.126;2022-08-21T18:23:35;24.30;51.90
50738;DHT22;36703;48.154;17.126;2022-08-21T18:27:36;24.20;52.20
50738;DHT22;36703;48.154;17.126;2022-08-21T18:31:39;24.10;52.50
50738;DHT22;36703;48.154;17.126;2022-08-21T18:35:41;24.00;52.70
50738;DHT22;36703;48.154;17.126;2022-08-21T18:39:43;24.00;52.90
50738;DHT22;36703;48.154;17.126;2022-08-21T18:43:46;23.80;53.10
50738;DHT22;36703;48.154;17.126;2022-08-21T18:47:51;23.80;53.90
50738;DHT22;36703;48.154;17.126;2022-08-21T18:51:53;23.70;53.60
50738;DHT22;36703;48.154;17.126;2022-08-21T18:55:56;23.70;54.60
50738;DHT22;36703;48.154;17.126;2022-08-21T18:59:57;23.60;53.90
50738;DHT22;36703;48.154;17.126;2022-08-21T19:03:58;23.50;54.20
50738;DHT22;36703;48.154;17.126;2022-08-21T19:07:59;23.40;54.50
50738;DHT22;36703;48.154;17.126;2022-08-21T19:12:01;23.30;54.80
50738;DHT22;36703;48.154;17.126;2022-08-21T19:16:04;23.30;54.90
50738;DHT22;36703;48.154;17.126;2022-08-21T19:20:14;23.30;55.00
50738;DHT22;36703;48.154;17.126;2022-08-21T19:24:20;23.20;55.30
50738;DHT22;36703;48.154;17.126;2022-08-21T19:28:34;23.20;55.40
50738;DHT22;36703;48.154;17.126;2022-08-21T19:32:42;23.20;55.60
50738;DHT22;36703;48.154;17.126;2022-08-21T19:36:45;23.20;55.70
50738;DHT22;36703;48.154;17.126;2022-08-21T19:40:47;23.30;55.60
50738;DHT22;36703;48.154;17.126;2022-08-21T19:44:49;23.20;55.70
50738;DHT22;36703;48.154;17.126;2022-08-21T19:48:50;23.20;55.90
50738;DHT22;36703;48.154;17.126;2022-08-21T19:52:52;23.10;56.00
50738;DHT22;36703;48.154;17.126;2022-08-21T19:56:55;23.00;56.30
50738;DHT22;36703;48.154;17.126;2022-08-21T20:00:58;23.10;56.50
50738;DHT22;36703;48.154;17.126;2022-08-21T20:05:00;23.10;56.50
50738;DHT22;36703;48.154;17.126;2022-08-21T20:09:04;23.10;56.60
50738;DHT22;36703;48.154;17.126;2022-08-21T20:13:06;23.10;56.60
50738;DHT22;36703;48.154;17.126;2022-08-21T20:17:10;23.10;56.70
50738;DHT22;36703;48.154;17.126;2022-08-21T20:21:12;23.10;56.70
50738;DHT22;36703;48.154;17.126;2022-08-21T20:25:13;23.20;56.60
50738;DHT22;36703;48.154;17.126;2022-08-21T20:29:16;23.20;56.50
50738;DHT22;36703;48.154;17.126;2022-08-21T20:33:18;23.10;56.40
50738;DHT22;36703;48.154;17.126;2022-08-21T20:37:20;23.00;56.40
50738;DHT22;36703;48.154;17.126;2022-08-21T20:41:23;23.00;56.40
50738;DHT22;36703;48.154;17.126;2022-08-21T20:45:26;23.00;56.50
50738;DHT22;36703;48.154;17.126;2022-08-21T20:49:38;23.00;56.40
50738;DHT22;36703;48.154;17.126;2022-08-21T21:03:11;22.80;56.60
50738;DHT22;36703;48.154;17.126;2022-08-21T21:07:17;22.70;56.80
50738;DHT22;36703;48.154;17.126;2022-08-21T21:11:27;22.70;56.90
50738;DHT22;36703;48.154;17.126;2022-08-21T21:15:32;22.70;56.80
50738;DHT22;36703;48.154;17.126;2022-08-21T21:19:50;22.70;56.80
50738;DHT22;36703;48.154;17.126;2022-08-21T21:24:08;22.70;56.90
50738;DHT22;36703;48.154;17.126;2022-08-21T21:28:18;22.70;56.80
50738;DHT22;36703;48.154;17.126;2022-08-21T21:32:22;22.70;56.80
50738;DHT22;36703;48.154;17.126;2022-08-21T21:36:30;22.80;56.90
50738;DHT22;36703;48.154;17.126;2022-08-21T21:45:19;22.60;56.80
50738;DHT22;36703;48.154;17.126;2022-08-21T22:06:55;22.60;57.10
50738;DHT22;36703;48.154;17.126;2022-08-21T22:11:25;22.60;56.90
50738;DHT22;36703;48.154;17.126;2022-08-21T22:15:33;22.70;57.00
50738;DHT22;36703;48.154;17.126;2022-08-21T22:19:38;22.60;57.10
50738;DHT22;36703;48.154;17.126;2022-08-21T22:23:46;22.70;57.10
50738;DHT22;36703;48.154;17.126;2022-08-21T22:27:59;22.80;57.00
50738;DHT22;36703;48.154;17.126;2022-08-21T22:32:07;22.70;56.80
50738;DHT22;36703;48.154;17.126;2022-08-21T22:36:16;22.70;56.80
50738;DHT22;36703;48.154;17.126;2022-08-21T22:40:37;22.70;56.90
50738;DHT22;36703;48.154;17.126;2022-08-21T22:44:58;22.60;57.00
50738;DHT22;36703;48.154;17.126;2022-08-21T22:49:19;22.60;56.90
50738;DHT22;36703;48.154;17.126;2022-08-21T22:53:38;22.70;57.00
50738;DHT22;36703;48.154;17.126;2022-08-21T22:57:43;22.70;56.80
50738;DHT22;36703;48.154;17.126;2022-08-21T23:01:45;22.70;56.80
50738;DHT22;36703;48.154;17.126;2022-08-21T23:05:47;22.60;56.90
50738;DHT22;36703;48.154;17.126;2022-08-21T23:09:48;22.60;57.10
50738;DHT22;36703;48.154;17.126;2022-08-21T23:13:51;22.60;57.10
50738;DHT22;36703;48.154;17.126;2022-08-21T23:31:23;22.60;57.20
50738;DHT22;36703;48.154;17.126;2022-08-21T23:35:50;22.50;57.80
50738;DHT22;36703;48.154;17.126;2022-08-21T23:40:40;22.50;57.40
50738;DHT22;36703;48.154;17.126;2022-08-21T23:49:21;22.50;57.50
